Time;durP1;ratioP1;P1;durP2;ratioP2;P2;SDS_P1;SDS_P2;PMS_P1;PMS_P2;Temp;Humidity;BMP_temperature;BMP_pressure;BME280_temperature;BME280_humidity;BME280_pressure;Samples;Min_cycle;Max_cycle;Signal;HPM_P1;HPM_P2
2021/07/25 00:02:21;;;;;;;56.83;40.35;;;;;;;;;;4357217;32;20488;-81
2021/07/25 00:04:46;;;;;;;56.67;41.22;;;;;;;;;;4358833;32;20147;-81
2021/07/25 00:07:12;;;;;;;69.95;46.92;;;;;;;;;;4357407;33;20193;-81
2021/07/25 00:09:37;;;;;;;59.17;40.83;;;;;;;;;;4358525;32;20150;-81
2021/07/25 00:12:02;;;;;;;61.35;41.75;;;;;;;;;;4357068;32;20154;-81
2021/07/25 00:14:28;;;;;;;57.08;40.72;;;;;;;;;;4357475;32;20159;-81
2021/07/25 00:17:03;;;;;;;59.78;42.25;;;;;;;;;;4358051;32;20534;-81
2021/07/25 00:19:30;;;;;;;63.72;43.67;;;;;;;;;;4357605;32;20573;-81
2021/07/25 00:22:01;;;;;;;72.65;50.33;;;;;;;;;;4358438;32;20157;-81
2021/07/25 00:24:32;;;;;;;71.20;47.60;;;;;;;;;;4345240;32;20571;-81
2021/07/25 00:27:01;;;;;;;69.15;46.58;;;;;;;;;;4357528;32;20167;-81
2021/07/25 00:29:30;;;;;;;60.40;42.30;;;;;;;;;;4356889;33;20184;-80
2021/07/25 00:31:57;;;;;;;63.67;45.03;;;;;;;;;;4356933;32;20182;-80
2021/07/25 00:34:23;;;;;;;63.92;44.58;;;;;;;;;;4357341;32;20515;-81
2021/07/25 00:36:51;;;;;;;63.90;45.17;;;;;;;;;;4357217;33;20152;-80
2021/07/25 00:39:16;;;;;;;55.85;40.53;;;;;;;;;;4356775;32;20584;-80
2021/07/25 00:41:41;;;;;;;67.30;44.80;;;;;;;;;;4356568;33;20254;-81
2021/07/25 00:44:07;;;;;;;65.72;45.00;;;;;;;;;;4357371;32;20182;-81
2021/07/25 00:46:32;;;;;;;65.07;44.50;;;;;;;;;;4356665;32;20500;-81
2021/07/25 00:49:00;;;;;;;71.62;48.38;;;;;;;;;;4356997;32;20159;-81
2021/07/25 00:51:30;;;;;;;71.37;45.28;;;;;;;;;;4356542;33;20204;-80
2021/07/25 00:53:57;;;;;;;71.20;45.85;;;;;;;;;;4357453;32;20158;-80
2021/07/25 00:56:23;;;;;;;76.85;49.45;;;;;;;;;;4344271;33;20181;-80
2021/07/25 00:59:08;;;;;;;79.10;50.33;;;;;;;;;;4344310;33;20159;-80
2021/07/25 01:01:34;;;;;;;78.60;48.90;;;;;;;;;;4344199;33;20592;-80
2021/07/25 01:04:18;;;;;;;77.30;47.42;;;;;;;;;;4344778;32;20177;-81
2021/07/25 01:06:47;;;;;;;76.75;49.35;;;;;;;;;;4341670;32;20194;-80
2021/07/25 01:09:14;;;;;;;65.78;44.28;;;;;;;;;;4342938;33;20132;-81
2021/07/25 01:11:45;;;;;;;64.65;42.90;;;;;;;;;;4341460;32;20159;-80
2021/07/25 01:14:12;;;;;;;76.60;50.88;;;;;;;;;;4341801;32;20201;-80
2021/07/25 01:16:37;;;;;;;73.18;45.25;;;;;;;;;;4341739;32;20186;-81
2021/07/25 01:19:06;;;;;;;79.20;48.22;;;;;;;;;;4341816;32;20503;-80
2021/07/25 01:21:31;;;;;;;81.95;50.75;;;;;;;;;;4341910;32;20163;-80
2021/07/25 01:23:59;;;;;;;78.43;47.35;;;;;;;;;;4341727;32;20223;-82
2021/07/25 01:26:29;;;;;;;77.75;48.45;;;;;;;;;;4342477;32;20191;-82
2021/07/25 01:28:56;;;;;;;78.12;49.38;;;;;;;;;;4341341;32;20221;-81
2021/07/25 01:31:31;;;;;;;85.07;49.78;;;;;;;;;;4341808;33;20178;-81
2021/07/25 01:34:15;;;;;;;72.07;46.37;;;;;;;;;;4342562;33;20522;-80
2021/07/25 01:36:41;;;;;;;77.55;48.60;;;;;;;;;;4344028;33;20217;-81
2021/07/25 01:39:09;;;;;;;81.18;50.22;;;;;;;;;;4344068;33;20216;-82
2021/07/25 01:41:41;;;;;;;72.60;47.62;;;;;;;;;;4344425;32;20195;-81
2021/07/25 01:44:07;;;;;;;76.50;47.95;;;;;;;;;;4344127;33;20185;-81
2021/07/25 01:46:33;;;;;;;72.32;50.30;;;;;;;;;;4343929;33;20159;-81
2021/07/25 01:49:00;;;;;;;65.57;45.12;;;;;;;;;;4343968;33;20171;-80
2021/07/25 01:51:25;;;;;;;73.75;45.67;;;;;;;;;;4344179;33;20183;-81
2021/07/25 01:53:53;;;;;;;68.12;46.10;;;;;;;;;;4344386;33;20246;-81
2021/07/25 01:56:19;;;;;;;67.68;45.38;;;;;;;;;;4343869;33;20164;-81
2021/07/25 01:58:44;;;;;;;70.32;45.47;;;;;;;;;;4343762;33;20287;-81
2021/07/25 02:01:12;;;;;;;90.15;53.80;;;;;;;;;;4331451;33;20182;-81
2021/07/25 02:03:37;;;;;;;63.28;45.38;;;;;;;;;;4344584;33;20162;-81
2021/07/25 02:06:13;;;;;;;65.62;45.45;;;;;;;;;;4343530;33;20152;-80
2021/07/25 02:08:38;;;;;;;58.10;40.65;;;;;;;;;;4331544;33;20155;-81
2021/07/25 02:11:03;;;;;;;59.35;37.65;;;;;;;;;;4332858;32;20225;-81
2021/07/25 02:13:29;;;;;;;52.25;38.33;;;;;;;;;;4331358;32;20578;-81
2021/07/25 02:15:54;;;;;;;57.50;37.05;;;;;;;;;;4331606;33;20240;-81
2021/07/25 02:18:27;;;;;;;53.95;37.75;;;;;;;;;;4331207;32;20155;-81
2021/07/25 02:20:53;;;;;;;50.50;36.03;;;;;;;;;;4331690;33;20470;-82
2021/07/25 02:23:18;;;;;;;49.95;35.47;;;;;;;;;;4361588;32;20643;-81
2021/07/25 02:25:43;;;;;;;54.75;39.50;;;;;;;;;;4409013;32;20228;-81
2021/07/25 02:28:09;;;;;;;56.05;39.28;;;;;;;;;;4408618;32;20157;-81
2021/07/25 02:30:34;;;;;;;58.15;41.00;;;;;;;;;;4408239;32;20197;-81
2021/07/25 02:33:00;;;;;;;47.53;33.35;;;;;;;;;;4408247;32;20157;-80
2021/07/25 02:35:26;;;;;;;46.50;33.28;;;;;;;;;;4408605;32;20233;-80
2021/07/25 02:37:52;;;;;;;48.85;35.05;;;;;;;;;;4408271;32;20593;-81
2021/07/25 02:40:17;;;;;;;48.70;33.72;;;;;;;;;;4378060;32;20159;-81
2021/07/25 02:42:45;;;;;;;48.47;35.72;;;;;;;;;;4331228;33;20147;-80
2021/07/25 02:45:12;;;;;;;52.42;36.42;;;;;;;;;;4331012;32;20160;-81
2021/07/25 02:47:37;;;;;;;48.95;34.33;;;;;;;;;;4330345;33;20155;-81
2021/07/25 02:50:10;;;;;;;45.33;33.10;;;;;;;;;;4331613;32;20152;-81
2021/07/25 02:52:58;;;;;;;50.22;35.72;;;;;;;;;;4331325;32;20174;-81
2021/07/25 02:55:24;;;;;;;57.30;37.85;;;;;;;;;;4333325;32;20611;-81
2021/07/25 02:57:49;;;;;;;60.67;39.65;;;;;;;;;;4330827;33;20197;-80
2021/07/25 03:00:17;;;;;;;66.30;41.33;;;;;;;;;;4333317;32;20593;-81
2021/07/25 03:02:42;;;;;;;66.40;43.87;;;;;;;;;;4331060;32;20584;-81
2021/07/25 03:05:08;;;;;;;66.20;43.30;;;;;;;;;;4343698;33;20189;-81
2021/07/25 03:07:42;;;;;;;64.87;38.40;;;;;;;;;;4342793;33;20236;-81
2021/07/25 03:10:10;;;;;;;63.92;42.03;;;;;;;;;;4358529;32;20158;-81
2021/07/25 03:12:56;;;;;;;61.05;38.60;;;;;;;;;;4359203;32;20185;-81
2021/07/25 03:15:24;;;;;;;65.32;39.25;;;;;;;;;;4357806;32;20159;-80
2021/07/25 03:17:52;;;;;;;61.83;38.67;;;;;;;;;;4358493;32;20223;-81
2021/07/25 03:20:17;;;;;;;60.05;35.75;;;;;;;;;;4357565;32;20151;-81
2021/07/25 03:22:42;;;;;;;61.17;40.17;;;;;;;;;;4358591;32;20189;-80
2021/07/25 03:25:08;;;;;;;57.55;37.63;;;;;;;;;;4359201;32;20219;-80
2021/07/25 03:27:36;;;;;;;61.67;37.05;;;;;;;;;;4358551;33;20151;-81
2021/07/25 03:30:02;;;;;;;59.47;36.10;;;;;;;;;;4357627;32;20163;-81
2021/07/25 03:32:27;;;;;;;60.38;40.25;;;;;;;;;;4357534;32;20151;-80
2021/07/25 03:34:53;;;;;;;54.75;36.60;;;;;;;;;;4357919;32;20155;-81
2021/07/25 03:37:19;;;;;;;58.45;36.92;;;;;;;;;;4357482;33;20589;-80
2021/07/25 03:39:54;;;;;;;53.28;34.03;;;;;;;;;;4357939;33;20645;-81
2021/07/25 03:42:20;;;;;;;45.80;29.52;;;;;;;;;;4358027;32;20146;-81
2021/07/25 03:44:45;;;;;;;48.42;32.97;;;;;;;;;;4357441;32;20217;-81
2021/07/25 03:47:16;;;;;;;45.10;28.75;;;;;;;;;;4357454;32;20613;-81
2021/07/25 03:49:45;;;;;;;40.55;26.77;;;;;;;;;;4358787;33;20230;-81
2021/07/25 03:52:12;;;;;;;44.50;29.55;;;;;;;;;;4357321;33;20211;-81
2021/07/25 03:54:46;;;;;;;43.80;28.00;;;;;;;;;;4357282;32;20167;-80
2021/07/25 03:57:23;;;;;;;41.35;27.37;;;;;;;;;;4359678;33;20153;-81
2021/07/25 03:59:48;;;;;;;40.92;26.73;;;;;;;;;;4357228;33;20472;-81
2021/07/25 04:02:13;;;;;;;38.42;26.30;;;;;;;;;;4357291;32;20216;-81
2021/07/25 04:04:39;;;;;;;39.85;24.52;;;;;;;;;;4357220;32;20159;-81
2021/07/25 04:07:04;;;;;;;38.42;25.17;;;;;;;;;;4357107;32;20198;-81
2021/07/25 04:09:32;;;;;;;39.58;26.02;;;;;;;;;;4357913;32;20177;-81
2021/07/25 04:12:14;;;;;;;35.17;21.75;;;;;;;;;;4359191;33;20190;-81
2021/07/25 04:14:40;;;;;;;37.40;22.50;;;;;;;;;;4357310;32;20182;-81
2021/07/25 04:17:07;;;;;;;36.15;19.92;;;;;;;;;;4357045;32;20588;-81
2021/07/25 04:19:33;;;;;;;34.47;22.90;;;;;;;;;;4349582;32;20181;-81
2021/07/25 04:22:01;;;;;;;30.23;20.37;;;;;;;;;;4345122;33;20163;-81
2021/07/25 04:24:26;;;;;;;35.30;22.23;;;;;;;;;;4344884;33;20250;-81
2021/07/25 04:26:52;;;;;;;31.52;20.90;;;;;;;;;;4344903;33;20164;-81
2021/07/25 04:29:17;;;;;;;33.85;22.92;;;;;;;;;;4345106;33;20181;-81
2021/07/25 04:31:44;;;;;;;31.17;20.17;;;;;;;;;;4344678;32;20193;-81
2021/07/25 04:34:10;;;;;;;38.22;23.12;;;;;;;;;;4344788;32;20178;-81
2021/07/25 04:36:35;;;;;;;31.67;21.62;;;;;;;;;;4358571;32;20154;-81
2021/07/25 04:39:03;;;;;;;32.65;22.30;;;;;;;;;;4344368;33;20186;-81
2021/07/25 04:41:30;;;;;;;31.60;20.45;;;;;;;;;;4344601;33;20150;-81
2021/07/25 04:44:15;;;;;;;30.23;20.77;;;;;;;;;;4345076;33;20193;-81
2021/07/25 04:46:47;;;;;;;29.83;18.52;;;;;;;;;;4345259;33;20158;-81
2021/07/25 04:50:15;;;;;;;32.42;20.17;;;;;;;;;;4344433;33;20237;-81
2021/07/25 04:52:35;;;;;;;28.30;18.80;;;;;;;;;;4295614;33;20605;-80
2021/07/25 04:55:06;;;;;;;27.95;17.15;;;;;;;;;;4297750;33;20287;-81
2021/07/25 04:57:36;;;;;;;27.83;17.73;;;;;;;;;;4285520;33;20251;-81
2021/07/25 05:00:02;;;;;;;23.15;17.10;;;;;;;;;;4297282;33;20167;-80
2021/07/25 05:02:27;;;;;;;25.80;15.98;;;;;;;;;;4285100;33;20153;-81
2021/07/25 05:04:53;;;;;;;24.05;17.17;;;;;;;;;;4285075;33;20561;-81
2021/07/25 05:07:18;;;;;;;27.98;17.10;;;;;;;;;;4347471;33;20600;-81
2021/07/25 05:09:51;;;;;;;23.08;14.93;;;;;;;;;;4357841;32;20708;-81
2021/07/25 05:12:29;;;;;;;25.37;16.87;;;;;;;;;;4360621;32;20176;-80
2021/07/25 05:15:03;;;;;;;25.35;16.25;;;;;;;;;;4359239;32;20202;-81
2021/07/25 05:17:53;;;;;;;23.95;14.85;;;;;;;;;;4359958;33;20150;-81
2021/07/25 05:20:22;;;;;;;24.37;15.32;;;;;;;;;;4344114;32;20152;-80
2021/07/25 05:22:58;;;;;;;25.67;15.45;;;;;;;;;;4344750;33;20151;-80
2021/07/25 05:25:24;;;;;;;18.75;12.85;;;;;;;;;;4344660;33;20177;-81
2021/07/25 05:27:53;;;;;;;21.23;12.98;;;;;;;;;;4344507;33;20235;-81
2021/07/25 05:30:21;;;;;;;22.33;13.35;;;;;;;;;;4354505;33;20173;-81
2021/07/25 05:32:48;;;;;;;22.50;12.95;;;;;;;;;;4360252;32;20161;-81
2021/07/25 05:35:17;;;;;;;18.90;12.63;;;;;;;;;;4347432;32;20632;-81
2021/07/25 05:37:42;;;;;;;17.15;11.82;;;;;;;;;;4357845;32;20506;-81
2021/07/25 05:40:12;;;;;;;17.85;12.43;;;;;;;;;;4344154;33;20151;-81
2021/07/25 05:42:38;;;;;;;17.42;11.98;;;;;;;;;;4343937;33;20492;-81
2021/07/25 05:45:13;;;;;;;15.57;11.50;;;;;;;;;;4343974;33;20159;-81
2021/07/25 05:47:48;;;;;;;21.02;12.65;;;;;;;;;;4344020;33;20150;-81
2021/07/25 05:50:14;;;;;;;18.80;12.18;;;;;;;;;;4345729;33;20166;-81
2021/07/25 05:52:43;;;;;;;18.55;11.80;;;;;;;;;;4343948;33;20151;-81
2021/07/25 05:55:14;;;;;;;17.80;11.32;;;;;;;;;;4344143;33;20177;-81
2021/07/25 05:57:39;;;;;;;21.70;12.55;;;;;;;;;;4344600;33;20148;-81
2021/07/25 06:00:06;;;;;;;15.20;10.35;;;;;;;;;;4344480;33;20255;-81
2021/07/25 06:02:50;;;;;;;16.70;10.90;;;;;;;;;;4344076;33;20564;-80
2021/07/25 06:05:17;;;;;;;17.20;11.77;;;;;;;;;;4350522;33;20626;-81
2021/07/25 06:07:57;;;;;;;16.00;11.30;;;;;;;;;;4358782;32;20166;-81
2021/07/25 06:10:34;;;;;;;;;;;;;;;;;;;;;
2021/07/25 06:13:09;;;;;;;16.08;11.05;;;;;;;;;;4353489;32;20476;-81
2021/07/25 06:15:37;;;;;;;14.93;10.95;;;;;;;;;;4357133;32;20202;-82
2021/07/25 06:18:05;;;;;;;17.95;11.65;;;;;;;;;;4359106;32;20163;-81
2021/07/25 06:20:33;;;;;;;17.75;11.32;;;;;;;;;;4359456;32;20159;-80
2021/07/25 06:22:59;;;;;;;17.62;11.07;;;;;;;;;;4360025;32;20211;-81
2021/07/25 06:25:28;;;;;;;16.37;11.45;;;;;;;;;;4358161;32;20691;-81
2021/07/25 06:27:57;;;;;;;19.55;11.95;;;;;;;;;;4358501;32;20190;-81
2021/07/25 06:30:31;;;;;;;17.75;11.12;;;;;;;;;;4358370;32;20163;-81
2021/07/25 06:33:07;;;;;;;16.23;10.82;;;;;;;;;;4360225;32;20127;-81
2021/07/25 06:35:39;;;;;;;18.83;10.98;;;;;;;;;;4358705;32;20178;-81
2021/07/25 06:38:05;;;;;;;20.92;12.73;;;;;;;;;;4358418;32;20171;-81
2021/07/25 06:40:31;;;;;;;18.60;12.23;;;;;;;;;;4358532;32;20174;-81
2021/07/25 06:42:58;;;;;;;16.12;11.45;;;;;;;;;;4358080;32;20159;-81
2021/07/25 06:45:33;;;;;;;18.48;11.48;;;;;;;;;;4358601;32;20652;-81
2021/07/25 06:47:59;;;;;;;19.45;11.75;;;;;;;;;;4358054;32;20462;-81
2021/07/25 06:50:29;;;;;;;16.30;11.20;;;;;;;;;;4358082;32;20270;-80
2021/07/25 06:52:56;;;;;;;16.12;12.05;;;;;;;;;;4358328;33;20221;-80
2021/07/25 06:55:25;;;;;;;19.95;13.60;;;;;;;;;;4358739;33;20217;-80
2021/07/25 06:57:50;;;;;;;21.37;12.52;;;;;;;;;;4358962;33;20160;-81
2021/07/25 07:00:16;;;;;;;18.27;12.02;;;;;;;;;;4358471;32;20159;-81
2021/07/25 07:02:49;;;;;;;17.40;12.88;;;;;;;;;;4346133;32;20235;-79
2021/07/25 07:05:18;;;;;;;23.73;13.68;;;;;;;;;;4357979;32;20658;-80
2021/07/25 07:07:46;;;;;;;20.98;14.73;;;;;;;;;;4358102;32;20240;-79
2021/07/25 07:10:14;;;;;;;21.35;14.30;;;;;;;;;;4357689;32;20213;-81
2021/07/25 07:12:40;;;;;;;17.90;12.48;;;;;;;;;;4346328;32;20201;-79
2021/07/25 07:15:06;;;;;;;17.33;12.55;;;;;;;;;;4357252;32;20546;-80
2021/07/25 07:17:33;;;;;;;18.60;12.90;;;;;;;;;;4357434;32;20184;-80
2021/07/25 07:19:58;;;;;;;20.98;13.93;;;;;;;;;;4357502;32;20238;-80
2021/07/25 07:22:25;;;;;;;19.62;13.38;;;;;;;;;;4357837;32;20198;-79
2021/07/25 07:24:50;;;;;;;20.52;13.25;;;;;;;;;;4357475;32;20202;-80
2021/07/25 07:27:15;;;;;;;21.83;15.30;;;;;;;;;;4357517;32;20576;-79
2021/07/25 07:29:41;;;;;;;21.60;15.63;;;;;;;;;;4357584;32;20235;-80
2021/07/25 07:32:07;;;;;;;22.13;14.70;;;;;;;;;;4350001;32;20197;-79
2021/07/25 07:34:45;;;;;;;21.58;14.30;;;;;;;;;;4343939;32;20166;-80
2021/07/25 07:37:13;;;;;;;20.67;14.48;;;;;;;;;;4344042;32;20139;-80
2021/07/25 07:39:39;;;;;;;21.27;14.05;;;;;;;;;;4342932;32;20167;-79
2021/07/25 07:42:05;;;;;;;22.45;14.57;;;;;;;;;;4342143;33;20210;-80
2021/07/25 07:44:31;;;;;;;21.45;15.00;;;;;;;;;;4343368;33;20168;-79
2021/07/25 07:46:58;;;;;;;21.30;14.38;;;;;;;;;;4346926;33;20166;-80
2021/07/25 07:49:23;;;;;;;23.60;13.90;;;;;;;;;;4342765;32;20549;-80
2021/07/25 07:51:48;;;;;;;22.48;13.98;;;;;;;;;;4342773;32;20191;-79
2021/07/25 07:54:14;;;;;;;23.45;15.15;;;;;;;;;;4344396;32;20683;-79
2021/07/25 07:56:39;;;;;;;20.88;14.45;;;;;;;;;;4346424;32;20151;-80
2021/07/25 07:59:09;;;;;;;22.45;15.13;;;;;;;;;;4344393;32;20158;-80
2021/07/25 08:01:42;;;;;;;22.45;15.32;;;;;;;;;;4350136;32;20190;-80
2021/07/25 08:04:07;;;;;;;21.37;14.43;;;;;;;;;;4342579;32;20156;-80
2021/07/25 08:06:35;;;;;;;22.37;14.35;;;;;;;;;;4343933;33;20186;-80
2021/07/25 08:09:04;;;;;;;21.80;15.32;;;;;;;;;;4344360;32;20159;-81
2021/07/25 08:11:33;;;;;;;21.58;14.82;;;;;;;;;;4345948;32;20131;-82
2021/07/25 08:14:01;;;;;;;19.60;14.02;;;;;;;;;;4342653;32;20198;-81
2021/07/25 08:16:27;;;;;;;21.05;13.85;;;;;;;;;;4342187;32;20186;-82
2021/07/25 08:19:03;;;;;;;20.62;14.98;;;;;;;;;;4343770;32;20139;-82
2021/07/25 08:21:29;;;;;;;22.80;14.32;;;;;;;;;;4342946;33;20182;-82
2021/07/25 08:24:07;;;;;;;24.48;14.82;;;;;;;;;;4342689;32;20214;-81
2021/07/25 08:26:33;;;;;;;21.70;14.85;;;;;;;;;;4342368;33;20194;-82
2021/07/25 08:29:21;;;;;;;19.27;13.57;;;;;;;;;;4343455;32;20159;-82
2021/07/25 08:31:53;;;;;;;20.02;14.15;;;;;;;;;;4333340;33;20191;-82
2021/07/25 08:34:18;;;;;;;19.75;12.07;;;;;;;;;;4343328;33;20164;-82
2021/07/25 08:36:44;;;;;;;23.35;14.77;;;;;;;;;;4342574;33;20203;-83
2021/07/25 08:39:25;;;;;;;18.67;12.88;;;;;;;;;;4342884;33;20626;-83
2021/07/25 08:42:10;;;;;;;21.17;12.95;;;;;;;;;;4338215;33;20249;-83
2021/07/25 08:44:41;;;;;;;22.65;12.50;;;;;;;;;;4341447;32;20280;-82
2021/07/25 08:47:11;;;;;;;16.33;10.52;;;;;;;;;;4344226;32;20159;-83
2021/07/25 08:50:14;;;;;;;14.75;10.95;;;;;;;;;;4345125;32;20187;-81
2021/07/25 08:52:41;;;;;;;16.42;11.48;;;;;;;;;;4344569;32;20565;-80
2021/07/25 08:55:24;;;;;;;16.10;11.35;;;;;;;;;;4347055;32;20160;-83
2021/07/25 08:57:51;;;;;;;17.25;12.00;;;;;;;;;;4347455;32;20181;-83
2021/07/25 09:00:18;;;;;;;16.70;11.23;;;;;;;;;;4334683;32;20595;-82
2021/07/25 09:02:43;;;;;;;14.32;9.43;;;;;;;;;;4346952;32;20574;-83
2021/07/25 09:05:10;;;;;;;13.25;9.07;;;;;;;;;;4344539;32;20177;-83
2021/07/25 09:07:50;;;;;;;;;;;;;;;;;;;;;
2021/07/25 09:13:03;;;;;;;12.55;8.35;;;;;;;;;;4300695;33;20313;-85
2021/07/25 09:15:33;;;;;;;14.68;8.75;;;;;;;;;;4325683;33;20171;-84
2021/07/25 09:18:05;;;;;;;13.18;7.68;;;;;;;;;;4335791;32;20211;-84
2021/07/25 09:20:34;;;;;;;9.75;7.00;;;;;;;;;;4346382;33;20217;-86
2021/07/25 09:23:19;;;;;;;16.33;10.35;;;;;;;;;;4333996;33;20465;-85
2021/07/25 09:25:46;;;;;;;14.80;9.95;;;;;;;;;;4333052;33;20202;-84
2021/07/25 09:28:24;;;;;;;12.13;9.30;;;;;;;;;;4332655;33;20171;-84
2021/07/25 09:30:52;;;;;;;16.23;10.90;;;;;;;;;;4332328;33;20171;-84
2021/07/25 09:33:36;;;;;;;11.85;8.68;;;;;;;;;;4332495;32;20189;-86
2021/07/25 09:36:25;;;;;;;13.93;9.73;;;;;;;;;;4346954;33;20166;-84
2021/07/25 09:39:05;;;;;;;14.15;9.25;;;;;;;;;;4343335;32;20225;-83
2021/07/25 09:41:32;;;;;;;12.68;8.38;;;;;;;;;;4330511;32;20177;-83
2021/07/25 09:43:59;;;;;;;15.43;7.72;;;;;;;;;;4320080;33;20151;-84
2021/07/25 09:46:27;;;;;;;10.95;7.20;;;;;;;;;;4345329;33;20169;-84
2021/07/25 09:49:06;;;;;;;10.80;7.28;;;;;;;;;;4332137;32;20182;-83
2021/07/25 09:51:33;;;;;;;11.85;7.85;;;;;;;;;;4332305;32;20148;-83
2021/07/25 09:54:02;;;;;;;8.38;5.70;;;;;;;;;;4331634;32;20277;-83
2021/07/25 09:56:30;;;;;;;8.43;4.45;;;;;;;;;;4344890;33;20136;-83
2021/07/25 09:58:57;;;;;;;8.48;5.87;;;;;;;;;;4332376;32;20191;-83
2021/07/25 10:01:38;;;;;;;11.43;6.32;;;;;;;;;;4331956;33;20178;-83
2021/07/25 10:04:24;;;;;;;7.65;4.15;;;;;;;;;;4331940;32;20162;-84
2021/07/25 10:06:50;;;;;;;8.05;4.15;;;;;;;;;;4336113;33;20534;-84
2021/07/25 10:09:19;;;;;;;7.70;4.50;;;;;;;;;;4346627;33;20206;-84
2021/07/25 10:11:55;;;;;;;7.90;4.53;;;;;;;;;;4346161;32;20255;-83
2021/07/25 10:14:21;;;;;;;9.30;4.93;;;;;;;;;;4346573;32;20534;-83
2021/07/25 10:16:59;;;;;;;6.70;4.05;;;;;;;;;;4346337;32;20155;-83
2021/07/25 10:19:31;;;;;;;7.72;4.18;;;;;;;;;;4346991;32;20216;-85
2021/07/25 10:21:56;;;;;;;7.25;4.18;;;;;;;;;;4346625;32;20181;-82
2021/07/25 10:24:23;;;;;;;6.40;3.85;;;;;;;;;;4345917;32;20155;-84
2021/07/25 10:26:52;;;;;;;7.43;4.50;;;;;;;;;;4345709;33;20163;-84
2021/07/25 10:29:17;;;;;;;5.30;3.58;;;;;;;;;;4346474;32;20189;-84
2021/07/25 10:31:48;;;;;;;8.68;4.10;;;;;;;;;;4346128;32;20556;-83
2021/07/25 10:34:13;;;;;;;6.45;3.53;;;;;;;;;;4360237;32;20597;-84
2021/07/25 10:36:40;;;;;;;9.70;4.30;;;;;;;;;;4359565;32;20143;-84
2021/07/25 10:39:08;;;;;;;6.97;4.10;;;;;;;;;;4345737;32;20194;-84
2021/07/25 10:41:37;;;;;;;6.40;5.20;;;;;;;;;;4345535;33;20182;-83
2021/07/25 10:44:03;;;;;;;7.30;4.12;;;;;;;;;;4345841;32;20151;-85
2021/07/25 10:46:30;;;;;;;6.93;3.95;;;;;;;;;;4345550;33;20202;-83
2021/07/25 10:49:12;;;;;;;7.78;4.00;;;;;;;;;;4345496;33;20186;-84
2021/07/25 10:52:03;;;;;;;6.55;3.97;;;;;;;;;;4331199;32;20220;-84
2021/07/25 10:54:34;;;;;;;9.15;4.43;;;;;;;;;;4330955;32;20517;-84
2021/07/25 10:57:02;;;;;;;6.65;4.18;;;;;;;;;;4330944;33;20164;-84
2021/07/25 10:59:40;;;;;;;7.25;4.47;;;;;;;;;;4330896;33;20152;-84
2021/07/25 11:02:21;;;;;;;6.65;4.80;;;;;;;;;;4330726;32;20159;-84
2021/07/25 11:07:58;;;;;;;7.07;4.00;;;;;;;;;;4338342;33;20170;-85
2021/07/25 11:10:34;;;;;;;5.57;3.67;;;;;;;;;;4331296;33;20198;-85
2021/07/25 11:13:30;;;;;;;5.30;3.97;;;;;;;;;;4331574;32;20182;-85
2021/07/25 11:15:58;;;;;;;6.20;4.10;;;;;;;;;;4344412;33;20167;-83
2021/07/25 11:18:27;;;;;;;7.37;4.22;;;;;;;;;;4337497;32;20201;-83
2021/07/25 11:23:21;;;;;;;6.87;4.62;;;;;;;;;;4350334;33;20200;-85
2021/07/25 11:25:47;;;;;;;6.60;4.30;;;;;;;;;;4330653;33;20608;-84
2021/07/25 11:28:35;;;;;;;4.72;3.87;;;;;;;;;;4330863;32;20186;-83
2021/07/25 11:31:04;;;;;;;7.00;4.78;;;;;;;;;;4330107;33;20155;-84
2021/07/25 11:33:39;;;;;;;4.85;3.40;;;;;;;;;;4331244;33;20230;-84
2021/07/25 11:36:27;;;;;;;5.22;3.87;;;;;;;;;;4330480;33;20166;-84
2021/07/25 11:38:56;;;;;;;20.62;17.48;;;;;;;;;;4330545;32;20159;-84
2021/07/25 11:41:33;;;;;;;19.37;16.35;;;;;;;;;;4343903;33;20144;-84
2021/07/25 11:44:11;;;;;;;22.30;19.83;;;;;;;;;;4330264;33;20147;-84
2021/07/25 11:46:45;;;;;;;24.05;21.23;;;;;;;;;;4340681;33;20696;-84
2021/07/25 11:49:17;;;;;;;25.88;22.02;;;;;;;;;;4345081;33;20227;-84
2021/07/25 11:51:44;;;;;;;21.73;18.23;;;;;;;;;;4344879;32;20160;-83
2021/07/25 11:54:12;;;;;;;20.23;18.02;;;;;;;;;;4344901;33;20182;-85
2021/07/25 11:56:50;;;;;;;23.92;19.20;;;;;;;;;;4344935;32;20201;-84
2021/07/25 11:59:17;;;;;;;22.95;17.95;;;;;;;;;;4344572;33;20190;-85
2021/07/25 12:01:50;;;;;;;23.55;20.12;;;;;;;;;;4344537;33;20492;-84
2021/07/25 12:07:16;;;;;;;30.08;23.12;;;;;;;;;;4358245;33;20194;-84
2021/07/25 12:09:47;;;;;;;27.62;23.40;;;;;;;;;;4346008;33;20154;-84
2021/07/25 12:12:13;;;;;;;26.05;22.10;;;;;;;;;;4345216;33;20159;-84
2021/07/25 12:14:40;;;;;;;26.20;23.20;;;;;;;;;;4344757;33;20151;-84
2021/07/25 12:17:09;;;;;;;27.58;22.05;;;;;;;;;;4344692;33;20191;-85
2021/07/25 12:19:53;;;;;;;;;;;;;;;;;;;;;
2021/07/25 12:22:49;;;;;;;23.05;20.27;;;;;;;;;;4353614;33;20155;-84
2021/07/25 12:28:13;;;;;;;24.67;19.27;;;;;;;;;;4349746;33;20483;-85
2021/07/25 12:33:48;;;;;;;23.52;17.98;;;;;;;;;;4358311;33;20194;-84
2021/07/25 12:36:16;;;;;;;21.40;17.23;;;;;;;;;;4344592;32;20197;-84
2021/07/25 12:38:47;;;;;;;21.60;18.45;;;;;;;;;;4345171;33;20204;-84
2021/07/25 12:41:39;;;;;;;24.27;18.33;;;;;;;;;;4358338;33;20552;-84
2021/07/25 12:44:07;;;;;;;19.77;17.35;;;;;;;;;;4332717;32;20163;-84
2021/07/25 12:47:04;;;;;;;;;;;;;;;;;;;;;
2021/07/25 12:50:01;;;;;;;22.33;15.55;;;;;;;;;;4347774;33;20572;-86
2021/07/25 12:52:27;;;;;;;19.10;13.98;;;;;;;;;;4335164;32;20195;-84
2021/07/25 12:58:26;;;;;;;13.15;11.00;;;;;;;;;;4311885;33;20194;-85
2021/07/25 13:03:47;;;;;;;9.38;5.72;;;;;;;;;;4357900;32;20201;-84
2021/07/25 13:06:13;;;;;;;8.00;5.43;;;;;;;;;;4357967;32;20191;-85
2021/07/25 13:08:59;;;;;;;6.32;3.47;;;;;;;;;;4414253;32;20158;-85
2021/07/25 13:11:36;;;;;;;4.12;2.70;;;;;;;;;;4421751;32;20172;-84
2021/07/25 13:14:16;;;;;;;3.45;2.55;;;;;;;;;;4408129;32;20166;-84
2021/07/25 13:16:52;;;;;;;4.87;3.25;;;;;;;;;;4405282;32;20532;-83
2021/07/25 13:19:21;;;;;;;2.90;2.12;;;;;;;;;;4403456;32;20225;-83
2021/07/25 13:21:47;;;;;;;5.93;2.90;;;;;;;;;;4400930;32;20228;-83
2021/07/25 13:24:17;;;;;;;4.25;1.92;;;;;;;;;;4402701;32;20162;-82
2021/07/25 13:27:15;;;;;;;;;;;;;;;;;;;;;
2021/07/25 13:32:34;;;;;;;2.30;1.80;;;;;;;;;;4358708;32;20518;-83
2021/07/25 13:38:14;;;;;;;3.00;2.17;;;;;;;;;;4389848;32;20192;-84
2021/07/25 13:40:50;;;;;;;3.20;2.00;;;;;;;;;;4413983;32;20244;-85
2021/07/25 13:43:15;;;;;;;3.72;1.85;;;;;;;;;;4424303;32;20543;-83
2021/07/25 13:45:42;;;;;;;3.37;1.90;;;;;;;;;;4423963;32;20157;-84
2021/07/25 13:48:08;;;;;;;3.80;2.10;;;;;;;;;;4424855;32;20161;-84
2021/07/25 13:50:33;;;;;;;4.22;1.85;;;;;;;;;;4424880;32;20161;-84
2021/07/25 13:52:59;;;;;;;3.60;2.35;;;;;;;;;;4424587;32;20188;-84
2021/07/25 13:55:25;;;;;;;2.92;1.83;;;;;;;;;;4424944;32;20203;-82
2021/07/25 13:57:59;;;;;;;3.67;1.98;;;;;;;;;;4425356;32;20214;-82
2021/07/25 14:00:24;;;;;;;3.37;1.58;;;;;;;;;;4425014;32;20485;-83
2021/07/25 14:02:49;;;;;;;3.03;1.90;;;;;;;;;;4435335;32;20145;-84
2021/07/25 14:05:23;;;;;;;3.55;2.50;;;;;;;;;;4422864;32;20293;-84
2021/07/25 14:10:25;;;;;;;5.78;3.20;;;;;;;;;;4343656;33;20603;-83
2021/07/25 14:12:50;;;;;;;4.62;3.00;;;;;;;;;;4347682;33;20476;-82
2021/07/25 14:15:18;;;;;;;5.12;3.20;;;;;;;;;;4331297;33;20671;-82
2021/07/25 14:17:45;;;;;;;5.72;2.97;;;;;;;;;;4343253;33;20175;-83
2021/07/25 14:20:13;;;;;;;6.07;3.33;;;;;;;;;;4343713;33;20183;-83
2021/07/25 14:22:39;;;;;;;4.90;3.22;;;;;;;;;;4343355;33;20159;-83
2021/07/25 14:25:04;;;;;;;3.95;3.28;;;;;;;;;;4343450;33;20171;-84
2021/07/25 14:27:40;;;;;;;;;;;;;;;;;;;;;
2021/07/25 14:30:07;;;;;;;7.37;3.67;;;;;;;;;;4345257;33;20503;-83
2021/07/25 14:32:40;;;;;;;5.25;3.78;;;;;;;;;;4343475;33;20178;-83
2021/07/25 14:35:07;;;;;;;7.40;4.75;;;;;;;;;;4343800;33;20187;-83
2021/07/25 14:37:45;;;;;;;6.05;4.75;;;;;;;;;;4343851;33;20190;-83
2021/07/25 14:40:14;;;;;;;8.63;4.62;;;;;;;;;;4342866;33;20595;-82
2021/07/25 14:42:49;;;;;;;8.07;4.10;;;;;;;;;;4343156;33;20159;-82
2021/07/25 14:48:12;;;;;;;5.53;3.45;;;;;;;;;;4313179;33;20259;-82
2021/07/25 14:50:44;;;;;;;5.95;3.83;;;;;;;;;;4313351;33;20534;-83
2021/07/25 14:53:18;;;;;;;5.55;3.95;;;;;;;;;;4337609;32;20566;-83
2021/07/25 14:56:04;;;;;;;6.85;4.15;;;;;;;;;;4343410;33;20189;-83
2021/07/25 14:58:29;;;;;;;6.28;3.47;;;;;;;;;;4343062;32;20195;-82
2021/07/25 15:00:58;;;;;;;5.85;3.35;;;;;;;;;;4344545;33;20591;-83
2021/07/25 15:03:44;;;;;;;7.62;4.28;;;;;;;;;;4343493;33;20166;-82
2021/07/25 15:06:15;;;;;;;8.10;4.55;;;;;;;;;;4343925;33;20171;-83
2021/07/25 15:08:40;;;;;;;7.37;4.45;;;;;;;;;;4392435;32;20262;-83
2021/07/25 15:11:25;;;;;;;7.35;4.60;;;;;;;;;;4415560;32;20204;-83
2021/07/25 15:13:54;;;;;;;7.15;4.05;;;;;;;;;;4401517;32;20162;-83
2021/07/25 15:16:20;;;;;;;8.10;4.70;;;;;;;;;;4408199;32;20192;-82
2021/07/25 15:18:45;;;;;;;9.70;4.75;;;;;;;;;;4407672;32;20201;-83
2021/07/25 15:21:17;;;;;;;9.80;5.85;;;;;;;;;;4407574;32;20210;-83
2021/07/25 15:23:43;;;;;;;15.18;8.10;;;;;;;;;;4421628;32;20226;-82
2021/07/25 15:26:08;;;;;;;11.73;7.90;;;;;;;;;;4409814;32;20211;-81